• Join FlightAware (Why Join?)
  • Login
  • US Flag 
10:00AM EDT


 

Airport Tracker/Info


-or-


 

Live Flight TrackerFlight Track Log ✈ AFR1619 ✈ 28-Apr-2013 ✈ EDDF / FRA - LFPG / CDG

Flight Track Log - Related Links

Times and Time Zones

All times are in EDT time to prevent confusion due to time zone crossing. See the AFR1619 flight status page for this flight to view local times or setup timezone preferences in your user account.

Time Position Orientation Groundspeed Altitude Reporting Facility
EDT Latitude Longitude Course Direction KTS MPH feet Rate Location/Type
06:23AM 49.8926 7.6172 258° West  Level Estimated
06:24AM 49.8811 7.5403 257° West  Level Estimated
06:25AM 49.8695 7.4634 257° West  Level Estimated
06:26AM 49.8579 7.3865 257° West  Level Estimated
06:27AM 49.8463 7.3097 257° West  Level Estimated
06:28AM 49.8346 7.2330 257° West  Level Estimated
06:29AM 49.8229 7.1562 257° West  Level Estimated
06:30AM 49.8111 7.0795 257° West  Level Estimated
06:31AM 49.7993 7.0028 257° West  Level Estimated
06:32AM 49.7874 6.9262 257° West  Level Estimated
06:33AM 49.7754 6.8496 256° West  Level Estimated
06:34AM 49.7634 6.7731 256° West  Level Estimated
06:35AM 49.7514 6.6966 256° West  Level Estimated
06:36AM 49.7393 6.6201 256° West  Level Estimated
06:37AM 49.7272 6.5436 256° West  Level Estimated
06:38AM 49.7150 6.4672 256° West  Level Estimated
06:39AM 49.7027 6.3909 256° West  Level Estimated
06:40AM 49.6904 6.3146 256° West  Level Estimated
06:41AM 49.6781 6.2383 256° West  Level Estimated
06:42AM 49.6657 6.1620 256° West  Level Estimated
06:43AM 49.6533 6.0858 256° West  Level Estimated
06:44AM 49.6408 6.0097 256° West  Level Estimated
06:45AM 49.6282 5.9335 256° West  Level Estimated
06:46AM 49.6156 5.8574 256° West  Level Estimated
06:47AM 49.6030 5.7814 256° West  Level Estimated
06:48AM 49.5903 5.7054 256° West  Level Estimated
06:49AM 49.5775 5.6294 256° West  Level Estimated
06:50AM 49.5648 5.5535 255° West  Level Estimated
06:51AM 49.5519 5.4776 255° West  Level Estimated
06:52AM 49.5390 5.4017 255° West  Level Estimated
06:53AM 49.5261 5.3259 255° West  Level Estimated
06:54AM 49.5131 5.2502 255° West  Level Estimated
06:55AM 49.5001 5.1744 255° West  Level Estimated
06:56AM 49.4870 5.0987 255° West  Level Estimated
06:57AM 49.4738 5.0231 255° West  Level Estimated
06:58AM 49.4606 4.9475 255° West  Level Estimated
06:59AM 49.4474 4.8719 255° West  Level Estimated
07:00AM 49.4341 4.7964 255° West  Level Estimated
07:01AM 49.4208 4.7209 255° West  Level Estimated
07:02AM 49.4074 4.6454 255° West  Level Estimated
07:03AM 49.3939 4.5700 255° West  Level Estimated
07:04AM 49.3805 4.4947 255° West  Level Estimated
07:05AM 49.3669 4.4194 255° West  Level Estimated
07:06AM 49.3533 4.3441 255° West  Level Estimated
07:07AM 49.3397 4.2688 254° West  Level Estimated
07:08AM 49.3260 4.1936 254° West  Level Estimated
07:09AM 49.3123 4.1185 254° West  Level Estimated
07:10AM 49.2985 4.0434 254° West  Level Estimated
07:11AM 49.2847 3.9683 254° West  Level Estimated
07:12AM 49.2708 3.8933 254° West  Level Estimated
07:13AM 49.2569 3.8183 254° West  Level Estimated
07:14AM 49.2429 3.7434 254° West  Level Estimated
07:15AM 49.2289 3.6685 254° West  Level Estimated
07:16AM 49.2148 3.5936 254° West  Level Estimated
07:17AM 49.2007 3.5188 254° West  Level Estimated
07:18AM 49.1865 3.4440 254° West  Level Estimated
07:19AM 49.1723 3.3693 254° West  Level Estimated
07:20AM 49.1581 3.2946 254° West  Level Estimated
07:21AM 49.1438 3.2199 254° West  Level Estimated
07:22AM 49.1294 3.1453 254° West  Level Estimated
07:23AM 49.1150 3.0708 254° West  Level Estimated
07:24AM 49.1005 2.9963 254° West  Level Estimated
07:25AM 49.0860 2.9218 253° West  Level Estimated
07:26AM 49.0715 2.8474 253° West  Level Estimated
07:27AM 49.0569 2.7730 253° West  Level Estimated
07:28AM 49.0422 2.6986 253° West  Level Estimated
07:29AM 49.0275 2.6244 253° West  Level Estimated
07:30AM 49.0128 2.5501 253° West  Level Estimated
07:31AM 49.0128 2.5500 252° West  Level Estimated
07:32AM 49.0128 2.5500 180° South  Level Estimated
07:33AM 49.0128 2.5500 180° South  Level Estimated
07:34AM 49.0128 2.5500 180° South  Level Estimated
07:35AM 49.0128 2.5500 180° South  Level Estimated
07:36AM 49.0128 2.5500 180° South  Level Estimated
07:37AM 49.0128 2.5500 180° South  Level Estimated
07:38AM 49.0128 2.5500 180° South  Level Estimated